Time;durP1;ratioP1;P1;durP2;ratioP2;P2;SDS_P1;SDS_P2;PMS_P1;PMS_P2;Temp;Humidity;BMP_temperature;BMP_pressure;BME280_temperature;BME280_humidity;BME280_pressure;Samples;Min_cycle;Max_cycle;Signal;HPM_P1;HPM_P2
2023/06/13 00:02:10;;;;;;;6.58;3.83;;;;;;;13.63;58.76;100148.77;1682051;84;20963;-61
2023/06/13 00:04:39;;;;;;;6.15;3.58;;;;;;;13.68;58.79;100135.88;1685259;85;21038;-62
2023/06/13 00:07:09;;;;;;;11.43;3.98;;;;;;;13.72;58.90;100132.15;1687429;84;21041;-60
2023/06/13 00:09:35;;;;;;;13.22;4.00;;;;;;;13.73;58.92;100135.17;1682412;84;21042;-61
2023/06/13 00:12:02;;;;;;;13.13;5.30;;;;;;;13.74;59.05;100143.42;1686830;84;20975;-60
2023/06/13 00:14:29;;;;;;;12.07;3.98;;;;;;;13.74;58.90;100152.13;1687016;84;22535;-61
2023/06/13 00:16:56;;;;;;;12.68;4.08;;;;;;;13.72;58.75;100143.48;1685575;84;21018;-61
2023/06/13 00:19:23;;;;;;;12.55;3.80;;;;;;;13.73;58.59;100136.48;1684109;85;20991;-60
2023/06/13 00:21:51;;;;;;;9.40;3.12;;;;;;;13.74;58.41;100148.67;1685359;84;21133;-65
2023/06/13 00:24:17;;;;;;;12.40;3.55;;;;;;;13.76;58.14;100148.13;1683384;84;21349;-60
2023/06/13 00:26:43;;;;;;;6.53;3.42;;;;;;;13.75;57.88;100148.60;1683958;85;21573;-63
2023/06/13 00:29:10;;;;;;;7.12;3.15;;;;;;;13.74;57.61;100146.88;1680559;84;21097;-60
2023/06/13 00:31:36;;;;;;;7.00;3.33;;;;;;;13.73;57.28;100139.11;1685602;84;21011;-60
2023/06/13 00:34:02;;;;;;;9.65;3.62;;;;;;;13.71;57.22;100138.34;1684742;85;21042;-60
2023/06/13 00:36:33;;;;;;;4.87;2.87;;;;;;;13.72;56.76;100141.33;1684505;85;21093;-60
2023/06/13 00:38:58;;;;;;;5.80;2.90;;;;;;;13.71;56.74;100139.65;1683986;85;21574;-61
2023/06/13 00:41:25;;;;;;;7.33;3.30;;;;;;;13.70;56.59;100141.91;1685806;85;20968;-60
2023/06/13 00:43:52;;;;;;;7.12;3.15;;;;;;;13.69;56.53;100146.75;1678816;85;21068;-61
2023/06/13 00:46:23;;;;;;;9.30;3.55;;;;;;;13.68;56.33;100139.34;1687258;85;21637;-61
2023/06/13 00:48:49;;;;;;;7.70;3.05;;;;;;;13.63;55.83;100131.71;1683372;84;21058;-60
2023/06/13 00:51:20;;;;;;;6.47;2.98;;;;;;;13.60;56.05;100131.87;1678519;84;21061;-61
2023/06/13 00:53:47;;;;;;;16.27;2.85;;;;;;;13.55;56.06;100128.64;1684826;84;20995;-61
2023/06/13 00:56:13;;;;;;;15.48;3.02;;;;;;;13.50;55.97;100128.06;1704614;83;20971;-61
2023/06/13 00:58:40;;;;;;;10.03;3.77;;;;;;;13.44;55.69;100134.92;1706308;82;20994;-60
2023/06/13 01:01:09;;;;;;;7.37;3.22;;;;;;;13.37;55.78;100140.12;1705308;82;22610;-60
2023/06/13 01:03:38;;;;;;;9.35;3.10;;;;;;;13.29;55.75;100134.42;1698732;84;21518;-60
2023/06/13 01:06:04;;;;;;;9.88;2.80;;;;;;;13.21;55.71;100138.25;1688305;85;21110;-60
2023/06/13 01:08:31;;;;;;;6.97;2.80;;;;;;;13.17;55.69;100155.08;1685126;84;21476;-62
2023/06/13 01:10:59;;;;;;;;;;;;;;;13.14;55.61;100147.37;1684968;85;20967;-60
2023/06/13 01:13:36;;;;;;;8.28;2.70;;;;;;;13.11;55.54;100147.53;1678871;84;20107;-60
2023/06/13 01:16:10;;;;;;;4.12;2.47;;;;;;;13.07;55.56;100151.22;1671583;85;20951;-62
2023/06/13 01:18:40;;;;;;;4.53;2.20;;;;;;;13.03;55.52;100144.45;1674819;84;21089;-64
2023/06/13 01:21:09;;;;;;;9.45;2.70;;;;;;;13.06;55.49;100153.94;1675873;84;21612;-62
2023/06/13 01:23:57;;;;;;;6.58;2.62;;;;;;;13.05;55.32;100154.84;1675538;84;20967;-63
2023/06/13 01:26:44;;;;;;;5.45;2.50;;;;;;;13.04;55.35;100147.44;1674667;84;21525;-62
2023/06/13 01:29:11;;;;;;;7.20;2.33;;;;;;;13.06;55.24;100139.05;1674449;84;21441;-62
2023/06/13 01:31:38;;;;;;;;;;;;;;;13.05;55.18;100145.22;1680077;84;21107;-61
2023/06/13 01:34:05;;;;;;;10.88;2.40;;;;;;;13.05;55.07;100142.60;1677870;84;20162;-60
2023/06/13 01:36:33;;;;;;;3.62;2.27;;;;;;;13.05;54.99;100150.47;1679943;84;21030;-63
2023/06/13 01:39:00;;;;;;;6.75;2.50;;;;;;;13.02;55.00;100144.51;1680698;84;21046;-61
2023/06/13 01:41:26;;;;;;;7.75;2.20;;;;;;;12.98;54.94;100131.56;1708294;82;21030;-61
2023/06/13 01:43:53;;;;;;;8.80;2.40;;;;;;;12.94;54.95;100137.05;1714971;82;21123;-61
2023/06/13 01:46:28;;;;;;;8.85;2.52;;;;;;;12.90;54.93;100140.73;1709844;82;21569;-61
2023/06/13 01:49:13;;;;;;;10.18;2.60;;;;;;;12.84;54.88;100143.67;1708334;82;21040;-63
2023/06/13 01:51:43;;;;;;;4.87;2.27;;;;;;;12.79;54.87;100135.19;1704322;83;21087;-62
2023/06/13 01:54:11;;;;;;;4.80;2.40;;;;;;;12.71;54.84;100131.16;1652631;85;21097;-60
2023/06/13 01:56:40;;;;;;;9.53;2.77;;;;;;;12.63;54.81;100132.47;1654322;85;21038;-60
2023/06/13 01:59:08;;;;;;;6.42;2.17;;;;;;;12.56;54.79;100131.93;1646221;85;21037;-61
2023/06/13 02:01:38;;;;;;;5.12;2.10;;;;;;;12.47;54.78;100136.31;1652817;85;21083;-61
2023/06/13 02:04:05;;;;;;;3.95;2.00;;;;;;;12.39;54.78;100134.52;1653138;85;21101;-61
2023/06/13 02:06:32;;;;;;;5.47;2.30;;;;;;;12.29;54.77;100131.05;1653710;85;21117;-60
2023/06/13 02:09:01;;;;;;;6.17;2.25;;;;;;;12.21;54.78;100138.41;1657048;86;21078;-61
2023/06/13 02:11:27;;;;;;;8.03;2.20;;;;;;;12.14;54.82;100139.61;1645824;86;21052;-62
2023/06/13 02:13:54;;;;;;;5.37;2.13;;;;;;;12.07;54.82;100134.27;1657029;85;21110;-62
2023/06/13 02:16:25;;;;;;;6.30;2.22;;;;;;;12.01;54.84;100131.94;1652868;85;21055;-60
2023/06/13 02:18:48;;;;;;;3.90;2.62;;;;;;;11.96;54.89;100127.38;1652551;85;21084;-61
2023/06/13 02:21:15;;;;;;;5.87;2.90;;;;;;;11.91;54.95;100125.45;1646343;85;21053;-61
2023/06/13 02:23:41;;;;;;;6.27;2.10;;;;;;;11.86;54.94;100126.50;1644200;85;21078;-61
2023/06/13 02:26:08;;;;;;;3.85;2.35;;;;;;;11.82;54.95;100124.92;1646107;85;21065;-60
2023/06/13 02:28:34;;;;;;;4.90;2.00;;;;;;;11.80;55.00;100127.22;1648085;85;21035;-59
2023/06/13 02:31:01;;;;;;;5.07;2.20;;;;;;;11.78;54.98;100131.20;1659328;83;21478;-60
2023/06/13 02:33:30;;;;;;;7.53;2.00;;;;;;;11.61;54.97;100119.35;1734388;82;21065;-62
2023/06/13 02:35:57;;;;;;;3.85;1.82;;;;;;;11.61;54.97;100119.35;1734265;82;21053;-60
2023/06/13 02:38:24;;;;;;;14.78;2.35;;;;;;;11.73;55.05;100142.33;1732944;82;20963;-60
2023/06/13 02:40:50;;;;;;;4.80;2.37;;;;;;;11.63;55.04;100141.06;1733208;82;21078;-60
2023/06/13 02:43:17;;;;;;;4.37;2.15;;;;;;;11.60;55.16;100137.28;1731744;82;21035;-60
2023/06/13 02:45:43;;;;;;;7.00;2.02;;;;;;;11.57;55.22;100142.66;1732395;82;20994;-59
2023/06/13 02:48:10;;;;;;;8.87;1.93;;;;;;;11.58;55.27;100140.41;1733798;82;20987;-60
2023/06/13 02:50:36;;;;;;;4.50;2.05;;;;;;;11.52;55.24;100136.77;1734682;82;20974;-61
2023/06/13 02:53:03;;;;;;;4.22;1.80;;;;;;;11.44;55.40;100142.33;1730008;82;21411;-60
2023/06/13 02:55:30;;;;;;;6.87;2.30;;;;;;;11.36;55.42;100138.74;1731464;82;21549;-60
2023/06/13 02:57:56;;;;;;;6.67;2.40;;;;;;;11.34;55.60;100136.67;1732456;82;21431;-60
2023/06/13 03:00:23;;;;;;;4.37;2.30;;;;;;;11.36;55.72;100132.20;1682721;84;21587;-60
2023/06/13 03:02:49;;;;;;;11.78;2.50;;;;;;;11.45;55.86;100142.71;1732697;82;21018;-60
2023/06/13 03:05:16;;;;;;;4.85;2.20;;;;;;;11.51;55.97;100141.16;1731157;82;21010;-60
2023/06/13 03:07:47;;;;;;;7.97;2.60;;;;;;;11.58;55.99;100136.49;1734946;82;21038;-60
2023/06/13 03:10:15;;;;;;;10.78;2.20;;;;;;;11.64;56.00;100136.21;1734255;82;20979;-63
2023/06/13 03:12:42;;;;;;;3.52;2.10;;;;;;;11.69;56.00;100130.78;1682309;84;21046;-60
2023/06/13 03:15:11;;;;;;;7.20;1.87;;;;;;;11.73;55.97;100124.48;1731410;82;21033;-60
2023/06/13 03:17:39;;;;;;;7.55;2.40;;;;;;;11.79;56.05;100122.45;1733706;82;21505;-60
2023/06/13 03:20:06;;;;;;;5.10;1.95;;;;;;;11.85;56.16;100123.50;1730193;82;21022;-64
2023/06/13 03:22:33;;;;;;;13.53;2.12;;;;;;;11.85;56.04;100130.05;1742257;81;21089;-60
2023/06/13 03:25:04;;;;;;;4.67;2.87;;;;;;;11.80;56.12;100118.91;1744941;81;21046;-60
2023/06/13 03:27:28;;;;;;;5.08;2.02;;;;;;;11.80;56.22;100118.91;1741831;82;21006;-61
2023/06/13 03:29:54;;;;;;;5.27;2.20;;;;;;;11.82;56.28;100124.92;1742599;81;21010;-61
2023/06/13 03:32:21;;;;;;;4.50;2.07;;;;;;;11.84;56.34;100125.68;1736766;82;21620;-60
2023/06/13 03:34:47;;;;;;;4.35;2.25;;;;;;;11.88;56.33;100122.98;1740739;81;21018;-61
2023/06/13 03:37:14;;;;;;;5.08;2.20;;;;;;;11.94;56.43;100125.31;1745032;81;21013;-62
2023/06/13 03:39:41;;;;;;;9.88;1.92;;;;;;;11.94;56.43;100125.31;1746994;82;20998;-60
2023/06/13 03:42:07;;;;;;;5.55;2.35;;;;;;;12.00;56.47;100125.02;1745698;82;21073;-61
2023/06/13 03:44:34;;;;;;;9.13;2.33;;;;;;;12.02;56.47;100119.27;1737264;82;21057;-60
2023/06/13 03:47:00;;;;;;;6.53;1.67;;;;;;;12.04;56.56;100127.86;1742504;81;21208;-61
2023/06/13 03:49:26;;;;;;;14.85;3.00;;;;;;;12.00;56.67;100122.41;1747681;81;21017;-60
2023/06/13 03:51:54;;;;;;;144.80;11.77;;;;;;;12.04;56.84;100129.17;1748770;81;21552;-61
2023/06/13 03:54:21;;;;;;;67.40;7.65;;;;;;;12.09;57.02;100119.34;1744545;81;21011;-61
2023/06/13 03:56:48;;;;;;;42.78;4.67;;;;;;;12.12;57.18;100127.05;1677600;84;20977;-60
2023/06/13 03:59:16;;;;;;;5.85;2.22;;;;;;;12.17;57.34;100122.45;1747155;81;21005;-65
2023/06/13 04:01:43;;;;;;;11.33;2.40;;;;;;;12.26;57.39;100131.16;1743346;81;21025;-62
2023/06/13 04:04:09;;;;;;;13.65;2.40;;;;;;;12.26;57.39;100131.16;1740691;81;21021;-61
2023/06/13 04:06:37;;;;;;;9.18;2.20;;;;;;;12.39;57.66;100134.52;1740789;82;21271;-65
2023/06/13 04:09:05;;;;;;;8.40;2.30;;;;;;;12.49;57.59;100130.52;1741856;81;20963;-63
2023/06/13 04:11:33;;;;;;;5.45;2.12;;;;;;;12.56;57.50;100134.55;1739293;81;21448;-61
2023/06/13 04:14:01;;;;;;;7.95;2.40;;;;;;;12.71;57.53;100127.70;1740273;81;21069;-63
2023/06/13 04:16:28;;;;;;;7.28;2.60;;;;;;;12.86;57.45;100128.73;1745850;81;21006;-63
2023/06/13 04:18:54;;;;;;;56.05;4.75;;;;;;;12.98;57.28;100132.03;1746671;81;21513;-62
2023/06/13 04:21:24;;;;;;;12.07;3.27;;;;;;;13.04;57.16;100119.91;1738498;81;21659;-61
2023/06/13 04:23:53;;;;;;;194.45;17.90;;;;;;;13.04;57.22;100125.16;1741195;81;21057;-62
2023/06/13 04:26:20;;;;;;;4.12;2.02;;;;;;;13.11;57.25;100129.17;1745624;81;21004;-60
2023/06/13 04:28:52;;;;;;;3.00;1.80;;;;;;;13.18;57.21;100125.30;1746031;81;20986;-61
2023/06/13 04:31:17;;;;;;;6.40;2.00;;;;;;;13.25;57.28;100127.59;1743313;82;20994;-62
2023/06/13 04:33:50;;;;;;;3.33;2.17;;;;;;;13.34;57.24;100132.41;1703613;82;21001;-62
2023/06/13 04:36:17;;;;;;;4.55;2.02;;;;;;;13.48;57.21;100132.53;1700527;82;21013;-62
2023/06/13 04:38:43;;;;;;;6.33;2.42;;;;;;;13.58;57.22;100128.51;1742180;81;21017;-61
2023/06/13 04:41:10;;;;;;;3.37;1.65;;;;;;;13.62;57.01;100132.65;1724824;82;20970;-61
2023/06/13 04:43:38;;;;;;;2.95;1.85;;;;;;;13.73;57.15;100131.23;1675852;84;21634;-61
2023/06/13 04:46:05;;;;;;;5.95;2.35;;;;;;;13.82;57.11;100130.27;1649254;85;21022;-61
2023/06/13 04:48:32;;;;;;;7.35;2.10;;;;;;;13.93;56.94;100125.75;1656530;84;21057;-62
2023/06/13 04:50:59;;;;;;;4.42;1.77;;;;;;;13.96;56.88;100129.98;1675651;84;21119;-63
2023/06/13 04:53:28;;;;;;;46.20;5.42;;;;;;;13.99;56.84;100135.06;1706449;84;21006;-62
2023/06/13 04:55:57;;;;;;;8.70;1.77;;;;;;;14.08;56.90;100128.83;1710537;82;21002;-63
2023/06/13 04:58:24;;;;;;;7.62;2.52;;;;;;;14.17;56.55;100143.70;1704941;83;20998;-62
2023/06/13 05:00:52;;;;;;;4.40;1.80;;;;;;;14.29;56.57;100135.16;1705508;82;21517;-61
2023/06/13 05:03:20;;;;;;;;;;;;;;;14.36;56.49;100128.60;1709971;82;21027;-64
2023/06/13 05:05:48;;;;;;;3.58;1.77;;;;;;;14.43;56.38;100126.02;1687677;84;20469;-62
2023/06/13 05:08:19;;;;;;;2.15;1.62;;;;;;;14.52;56.45;100124.20;1671931;84;21504;-65
2023/06/13 05:10:43;;;;;;;6.58;1.80;;;;;;;14.64;56.52;100121.81;1707342;82;21055;-65
2023/06/13 05:13:11;;;;;;;4.97;1.60;;;;;;;14.72;56.20;100132.25;1686468;82;21540;-62
2023/06/13 05:15:39;;;;;;;3.10;1.60;;;;;;;14.72;56.28;100127.47;1704017;82;21034;-66
2023/06/13 05:18:12;;;;;;;4.15;1.40;;;;;;;14.73;56.07;100126.52;1704112;82;21013;-62
2023/06/13 05:20:34;;;;;;;2.67;1.60;;;;;;;14.72;56.12;100143.24;1703860;82;21083;-61
2023/06/13 05:23:01;;;;;;;2.40;1.50;;;;;;;14.87;56.07;100125.72;1742768;81;21557;-62
2023/06/13 05:25:28;;;;;;;;;;;;;;;14.93;55.85;100136.75;1744173;81;20990;-61
2023/06/13 05:27:56;;;;;;;2.92;1.20;;;;;;;15.03;55.44;100137.52;1744005;81;20169;-63
2023/06/13 05:30:24;;;;;;;1.80;1.22;;;;;;;15.10;55.06;100148.06;1686079;84;21131;-64
2023/06/13 05:32:51;;;;;;;4.67;1.50;;;;;;;15.06;54.62;100143.42;1679991;84;21050;-62
2023/06/13 05:35:18;;;;;;;1.75;1.25;;;;;;;15.00;54.68;100140.69;1695561;83;21076;-62
2023/06/13 05:37:46;;;;;;;2.02;1.40;;;;;;;14.97;54.69;100140.88;1690813;83;21162;-62
2023/06/13 05:40:13;;;;;;;1.40;1.00;;;;;;;14.87;54.58;100139.74;1691624;83;21602;-64
2023/06/13 05:42:39;;;;;;;4.83;1.40;;;;;;;14.78;54.54;100145.04;1689296;83;21063;-63
2023/06/13 05:45:08;;;;;;;3.07;1.50;;;;;;;14.66;54.49;100140.97;1691176;83;21527;-62
2023/06/13 05:47:34;;;;;;;7.58;1.80;;;;;;;14.61;54.54;100139.07;1689234;83;21118;-64
2023/06/13 05:50:01;;;;;;;2.72;1.32;;;;;;;14.64;54.46;100145.46;1690667;83;21062;-64
2023/06/13 05:52:28;;;;;;;2.25;1.47;;;;;;;14.71;54.52;100140.25;1692051;83;21099;-63
2023/06/13 05:54:54;;;;;;;2.75;1.70;;;;;;;14.90;54.67;100134.30;1693863;83;21154;-62
2023/06/13 05:57:20;;;;;;;2.75;1.50;;;;;;;15.03;54.47;100140.14;1692636;83;21107;-61
2023/06/13 05:59:49;;;;;;;3.20;1.75;;;;;;;15.17;54.37;100141.48;1694112;83;21086;-64
2023/06/13 06:02:15;;;;;;;5.95;1.45;;;;;;;15.22;54.54;100136.80;1692001;83;21103;-62
2023/06/13 06:04:41;;;;;;;1.90;1.40;;;;;;;15.31;54.10;100136.23;1694483;83;21103;-62
2023/06/13 06:07:08;;;;;;;2.42;1.77;;;;;;;15.38;54.08;100145.47;1742552;81;21513;-63
2023/06/13 06:09:34;;;;;;;3.15;1.47;;;;;;;15.48;54.03;100151.48;1747008;81;21606;-64
2023/06/13 06:12:00;;;;;;;4.30;1.42;;;;;;;15.56;53.48;100142.65;1740642;81;20946;-63
2023/06/13 06:14:27;;;;;;;41.00;3.23;;;;;;;15.60;53.46;100140.19;1740462;81;21039;-62
2023/06/13 06:16:55;;;;;;;6.10;1.65;;;;;;;15.73;52.28;100142.48;1735684;81;21006;-61
2023/06/13 06:19:21;;;;;;;2.00;1.37;;;;;;;15.70;51.99;100137.41;1723001;82;21553;-61
2023/06/13 06:21:48;;;;;;;3.50;1.30;;;;;;;15.74;52.39;100142.88;1746864;81;21593;-60
2023/06/13 06:24:14;;;;;;;2.77;2.02;;;;;;;15.79;51.92;100145.20;1740457;81;21075;-61
2023/06/13 06:26:40;;;;;;;2.10;1.47;;;;;;;15.87;51.32;100137.20;1746235;81;21018;-63
2023/06/13 06:29:07;;;;;;;3.17;1.27;;;;;;;16.04;52.10;100135.30;1744286;81;20935;-61
2023/06/13 06:31:34;;;;;;;2.27;1.27;;;;;;;16.15;51.63;100139.89;1745442;81;21014;-63
2023/06/13 06:34:00;;;;;;;1.20;1.00;;;;;;;16.06;51.48;100131.63;1745088;82;20970;-61
2023/06/13 06:36:26;;;;;;;1.47;1.05;;;;;;;15.91;51.65;100137.00;1736596;81;21060;-62
2023/06/13 06:38:53;;;;;;;4.17;1.10;;;;;;;15.97;51.42;100139.27;1739019;81;20975;-62
2023/06/13 06:41:19;;;;;;;1.22;1.12;;;;;;;16.00;51.24;100131.17;1743276;81;21023;-61
2023/06/13 06:43:46;;;;;;;3.13;1.60;;;;;;;15.97;51.05;100133.53;1743060;81;21902;-61
2023/06/13 06:46:12;;;;;;;1.98;1.30;;;;;;;15.95;50.42;100150.37;1734449;81;21065;-62
2023/06/13 06:48:39;;;;;;;2.00;1.23;;;;;;;16.06;50.94;100138.69;1744601;81;20962;-61
2023/06/13 06:51:05;;;;;;;2.77;1.85;;;;;;;16.29;50.82;100143.31;1747444;82;21054;-65
2023/06/13 06:53:32;;;;;;;6.37;1.45;;;;;;;16.37;50.22;100149.90;1747934;82;20962;-62
2023/06/13 06:55:59;;;;;;;1.35;1.00;;;;;;;16.41;49.74;100151.38;1745929;81;21061;-62
2023/06/13 06:58:25;;;;;;;5.47;1.30;;;;;;;16.53;49.71;100151.44;1680588;84;21063;-62
2023/06/13 07:00:52;;;;;;;4.08;1.72;;;;;;;16.86;49.83;100144.06;1744256;81;21541;-63
2023/06/13 07:03:18;;;;;;;3.73;1.50;;;;;;;18.20;49.49;100144.92;1740732;81;21025;-61
2023/06/13 07:05:44;;;;;;;4.03;1.40;;;;;;;18.20;49.49;100144.92;1748621;81;21896;-61
2023/06/13 07:08:11;;;;;;;6.05;1.57;;;;;;;19.06;49.39;100145.22;1747063;81;21082;-62
2023/06/13 07:10:38;;;;;;;5.42;1.52;;;;;;;19.21;48.00;100141.38;1744328;82;21022;-62
2023/06/13 07:13:04;;;;;;;6.25;1.57;;;;;;;19.02;48.01;100139.32;1738184;81;21038;-61
2023/06/13 07:15:31;;;;;;;5.12;1.55;;;;;;;19.10;47.79;100134.29;1746626;82;21053;-64
2023/06/13 07:17:57;;;;;;;4.43;1.53;;;;;;;19.77;48.49;100134.83;1746091;81;20998;-62
2023/06/13 07:20:24;;;;;;;8.53;1.90;;;;;;;20.61;47.70;100120.56;1675101;84;21021;-61
2023/06/13 07:22:50;;;;;;;3.17;1.60;;;;;;;20.13;47.02;100128.89;1746116;81;21080;-60
2023/06/13 07:25:17;;;;;;;3.20;1.23;;;;;;;20.73;46.25;100122.22;1747370;82;21445;-62
2023/06/13 07:27:44;;;;;;;4.60;1.35;;;;;;;21.16;46.75;100109.30;1739052;81;21503;-63
2023/06/13 07:30:12;;;;;;;3.55;1.42;;;;;;;21.08;46.30;100115.74;1746347;82;20959;-63
2023/06/13 07:32:38;;;;;;;3.35;1.50;;;;;;;20.76;44.73;100122.45;1741980;82;21088;-66
2023/06/13 07:35:04;;;;;;;3.47;1.50;;;;;;;20.44;45.05;100113.13;1746437;81;20975;-63
2023/06/13 07:37:31;;;;;;;3.87;1.52;;;;;;;19.63;45.39;100123.13;1743232;82;21520;-65
2023/06/13 07:39:58;;;;;;;3.77;1.67;;;;;;;19.35;45.66;100127.95;1744124;81;21569;-61
2023/06/13 07:42:24;;;;;;;4.85;1.30;;;;;;;19.15;45.40;100128.63;1709944;82;21489;-62
2023/06/13 07:44:51;;;;;;;2.97;1.20;;;;;;;19.69;45.86;100117.41;1747731;81;20971;-65
2023/06/13 07:47:17;;;;;;;3.30;1.40;;;;;;;20.64;45.29;100122.13;1747117;81;20963;-62
2023/06/13 07:49:43;;;;;;;3.97;1.47;;;;;;;20.72;44.49;100121.84;1747739;81;21490;-63
2023/06/13 07:52:10;;;;;;;2.67;1.57;;;;;;;21.16;44.80;100110.63;1677256;84;21032;-63
2023/06/13 07:54:37;;;;;;;8.45;1.50;;;;;;;22.16;44.52;100107.75;1745731;81;21041;-66
2023/06/13 07:57:04;;;;;;;4.50;1.50;;;;;;;22.61;43.71;100125.88;1745475;82;21081;-62
2023/06/13 07:59:31;;;;;;;2.25;1.27;;;;;;;23.41;42.58;100126.84;1746092;81;21022;-65
2023/06/13 08:01:58;;;;;;;1.60;1.30;;;;;;;23.35;42.82;100113.23;1677415;84;20951;-62
2023/06/13 08:04:25;;;;;;;4.65;1.60;;;;;;;23.41;42.21;100108.19;1746793;81;20998;-65
2023/06/13 08:06:51;;;;;;;2.45;1.27;;;;;;;23.05;41.86;100130.27;1748878;81;21014;-63
2023/06/13 08:09:18;;;;;;;2.98;1.27;;;;;;;22.39;41.50;100125.66;1747063;82;21014;-61
2023/06/13 08:11:45;;;;;;;3.25;1.67;;;;;;;22.03;41.11;100114.14;1747750;81;20919;-61
2023/06/13 08:14:12;;;;;;;1.98;1.42;;;;;;;21.31;40.94;100131.52;1745701;82;21607;-64
2023/06/13 08:16:39;;;;;;;4.78;1.47;;;;;;;21.19;40.86;100130.27;1745879;82;21052;-63
2023/06/13 08:19:06;;;;;;;5.92;1.77;;;;;;;21.23;41.72;100114.94;1746656;81;20998;-62
2023/06/13 08:21:32;;;;;;;2.05;1.40;;;;;;;22.25;40.99;100140.20;1674368;84;21101;-62
2023/06/13 08:24:02;;;;;;;2.15;1.40;;;;;;;23.41;41.13;100117.52;1737850;81;21021;-66
2023/06/13 08:26:32;;;;;;;8.30;2.77;;;;;;;23.48;39.69;100119.59;1747402;81;20950;-62
2023/06/13 08:29:02;;;;;;;1.67;1.42;;;;;;;23.94;39.83;100121.85;1679059;84;21000;-66
2023/06/13 08:31:31;;;;;;;5.95;1.60;;;;;;;23.45;39.49;100109.56;1704781;83;21021;-63
2023/06/13 08:33:56;;;;;;;7.10;2.05;;;;;;;23.31;39.56;100118.03;1703959;83;20994;-66
2023/06/13 08:36:25;;;;;;;2.95;1.55;;;;;;;23.63;40.02;100104.78;1707719;82;20954;-63
2023/06/13 08:38:54;;;;;;;5.20;2.08;;;;;;;24.86;39.56;100099.42;1707828;82;21021;-64
2023/06/13 08:41:22;;;;;;;4.40;1.75;;;;;;;25.06;38.85;100110.73;1703748;84;20998;-63
2023/06/13 08:43:50;;;;;;;3.50;1.72;;;;;;;24.65;37.65;100108.61;1745580;81;21041;-63
2023/06/13 08:46:16;;;;;;;3.75;1.42;;;;;;;24.08;37.96;100110.67;1746660;81;20998;-62
2023/06/13 08:48:42;;;;;;;4.65;1.60;;;;;;;22.79;38.10;100101.55;1676668;84;20963;-63
2023/06/13 08:51:16;;;;;;;2.40;1.50;;;;;;;21.85;37.92;100102.50;1675288;84;21109;-63
2023/06/13 08:53:46;;;;;;;4.70;1.32;;;;;;;21.54;38.77;100117.15;1676794;85;21066;-63
2023/06/13 08:56:12;;;;;;;4.67;1.77;;;;;;;22.25;38.74;100106.95;1676814;84;21624;-63
2023/06/13 08:58:42;;;;;;;4.45;1.62;;;;;;;23.19;39.95;100103.18;1706148;83;21592;-63
2023/06/13 09:01:09;;;;;;;3.22;1.60;;;;;;;24.28;38.83;100102.04;1675439;84;21047;-63
2023/06/13 09:03:37;;;;;;;3.17;1.20;;;;;;;23.79;37.87;100110.85;1703366;82;21022;-64
2023/06/13 09:06:05;;;;;;;4.50;1.52;;;;;;;22.67;38.26;100097.37;1703604;84;21651;-63
2023/06/13 09:08:33;;;;;;;2.45;1.50;;;;;;;21.64;38.21;100123.33;1748016;81;20971;-62
2023/06/13 09:11:00;;;;;;;3.52;1.70;;;;;;;21.08;39.04;100124.20;1744182;82;21559;-64
2023/06/13 09:13:30;;;;;;;6.45;1.90;;;;;;;20.95;39.46;100123.08;1749816;81;21438;-62
2023/06/13 09:15:56;;;;;;;3.62;1.27;;;;;;;20.84;39.45;100126.63;1681064;84;20958;-63
2023/06/13 09:18:24;;;;;;;2.75;1.27;;;;;;;20.42;39.18;100131.84;1678612;84;21132;-64
2023/06/13 09:20:51;;;;;;;4.33;1.45;;;;;;;19.87;39.31;100119.90;1673222;83;21010;-71
2023/06/13 09:23:19;;;;;;;3.20;1.12;;;;;;;19.41;41.31;100132.77;1677551;84;21137;-62
2023/06/13 09:25:48;;;;;;;1.57;1.00;;;;;;;19.75;40.70;100118.23;1706517;82;21061;-62
2023/06/13 09:28:28;;;;;;;3.27;1.32;;;;;;;20.16;41.27;100128.63;1707596;82;21603;-65
2023/06/13 09:30:57;;;;;;;2.70;1.17;;;;;;;21.61;41.79;100107.66;1675503;84;21111;-62
2023/06/13 09:33:24;;;;;;;1.95;1.30;;;;;;;22.21;41.23;100114.83;1678422;84;21553;-62
2023/06/13 09:35:51;;;;;;;2.80;1.07;;;;;;;23.83;41.22;100114.39;1676329;84;21002;-63
2023/06/13 09:38:23;;;;;;;3.05;1.05;;;;;;;25.09;39.56;100113.92;1703828;83;20950;-61
2023/06/13 09:40:55;;;;;;;3.30;1.60;;;;;;;25.56;37.97;100130.12;1680641;84;21020;-65
2023/06/13 09:43:23;;;;;;;1.95;0.90;;;;;;;25.57;38.47;100113.92;1710048;82;21016;-67
2023/06/13 09:45:51;;;;;;;5.25;1.35;;;;;;;26.25;38.72;100102.81;1687825;83;21040;-67
2023/06/13 09:48:18;;;;;;;4.40;1.00;;;;;;;26.80;37.44;100095.48;1676309;84;20993;-68
2023/06/13 09:50:46;;;;;;;8.30;1.60;;;;;;;27.09;37.09;100111.55;1677006;84;21120;-78
2023/06/13 09:53:12;;;;;;;5.55;1.40;;;;;;;28.44;37.98;100097.11;1704574;83;21140;-63
2023/06/13 09:55:40;;;;;;;2.95;1.25;;;;;;;28.40;36.42;100103.84;1670929;84;21036;-66
2023/06/13 09:58:07;;;;;;;7.45;1.37;;;;;;;27.27;35.21;100117.56;1745271;81;20971;-66
2023/06/13 10:00:33;;;;;;;;;;;;;;;26.99;34.96;100107.19;1747896;81;21053;-60
2023/06/13 10:02:59;;;;;;;4.58;1.87;;;;;;;27.13;34.53;100122.25;1748487;81;20161;-65
2023/06/13 10:05:25;;;;;;;;;;;;;;;27.43;34.93;100090.71;1746959;81;21040;-63
2023/06/13 10:07:52;;;;;;;21.02;1.80;;;;;;;26.81;33.44;100101.20;1748284;81;20211;-64
2023/06/13 10:10:19;;;;;;;4.83;1.52;;;;;;;25.09;33.19;100109.92;1744862;81;21008;-67
2023/06/13 10:12:52;;;;;;;11.30;1.92;;;;;;;24.51;34.72;100109.16;1749746;81;20998;-65
2023/06/13 10:15:22;;;;;;;3.90;1.77;;;;;;;25.22;34.60;100094.34;1742620;81;21025;-65
2023/06/13 10:17:48;;;;;;;5.55;1.50;;;;;;;26.29;34.77;100094.27;1675801;84;21592;-66
2023/06/13 10:20:17;;;;;;;4.78;1.87;;;;;;;26.41;34.21;100094.80;1676164;84;21084;-69
2023/06/13 10:22:45;;;;;;;5.92;1.87;;;;;;;25.57;33.01;100105.91;1675090;84;21660;-69
2023/06/13 10:25:14;;;;;;;5.62;1.87;;;;;;;25.18;32.95;100107.70;1665759;84;20997;-75
2023/06/13 10:27:45;;;;;;;6.40;1.80;;;;;;;24.68;33.26;100101.63;1703190;83;20977;-74
2023/06/13 10:30:23;;;;;;;7.40;2.30;;;;;;;24.17;33.39;100101.80;1697862;84;20990;-68
2023/06/13 10:33:00;;;;;;;6.03;2.08;;;;;;;23.71;33.43;100097.42;1695710;84;21010;-69
2023/06/13 10:36:02;;;;;;;4.67;1.60;;;;;;;22.89;33.60;100105.05;1700248;83;21109;-66
2023/06/13 10:38:48;;;;;;;13.70;2.83;;;;;;;22.21;33.67;100101.53;1701894;84;21461;-73
2023/06/13 10:41:34;;;;;;;5.97;1.65;;;;;;;21.38;34.37;100108.82;1701957;83;21064;-74
2023/06/13 10:44:34;;;;;;;5.33;2.60;;;;;;;20.90;35.58;100114.66;1696302;84;21033;-73
2023/06/13 10:47:01;;;;;;;6.90;1.60;;;;;;;20.64;35.55;100119.02;1701392;84;21091;-78
2023/06/13 10:49:35;;;;;;;;;;;;;;;20.00;36.03;100112.31;1700373;83;21094;-84
2023/06/13 10:52:03;;;;;;;6.05;1.80;;;;;;;19.65;36.05;100100.02;1700582;84;20468;-66
2023/06/13 10:54:33;;;;;;;15.15;2.70;;;;;;;19.37;36.07;100096.88;1701190;83;21074;-81
2023/06/13 10:57:00;;;;;;;6.47;1.70;;;;;;;19.32;36.39;100097.72;1709378;83;21049;-65
2023/06/13 10:59:38;;;;;;;11.68;2.30;;;;;;;19.56;36.80;100098.10;1694086;84;20962;-65
2023/06/13 11:02:16;;;;;;;7.58;1.87;;;;;;;20.01;37.00;100096.27;1701359;83;21005;-67
2023/06/13 11:04:52;;;;;;;5.92;1.67;;;;;;;20.08;36.63;100095.27;1698144;84;21041;-67
2023/06/13 11:07:25;;;;;;;3.05;1.40;;;;;;;20.22;36.59;100096.34;1702855;83;21021;-64
2023/06/13 11:10:06;;;;;;;5.17;1.75;;;;;;;20.23;37.00;100095.38;1697156;83;21221;-68
2023/06/13 11:12:33;;;;;;;5.53;1.62;;;;;;;20.56;37.51;100096.25;1700771;83;21073;-71
2023/06/13 11:15:02;;;;;;;;;;;;;;;21.15;37.70;100093.52;1703590;83;20942;-67
2023/06/13 11:17:28;;;;;;;4.72;1.70;;;;;;;21.76;37.58;100084.23;1691525;83;20503;-75
2023/06/13 11:19:56;;;;;;;6.35;1.52;;;;;;;23.04;36.79;100082.00;1692352;83;21104;-65
2023/06/13 11:22:23;;;;;;;11.90;1.37;;;;;;;23.84;36.83;100085.42;1699486;83;21000;-73
2023/06/13 11:24:56;;;;;;;4.20;1.70;;;;;;;24.46;35.92;100087.41;1694381;84;21084;-65
2023/06/13 11:27:24;;;;;;;8.95;1.77;;;;;;;24.54;35.58;100064.30;1689754;84;21037;-73
2023/06/13 11:29:51;;;;;;;;;;;;;;;25.22;35.69;100069.46;1696272;83;21042;-66
2023/06/13 11:32:18;;;;;;;3.40;1.77;;;;;;;25.08;34.67;100070.86;1688664;83;20552;-76